createdAt,value
2023-05-21T00:00:36.977Z,100485.04
2023-05-21T00:03:46.506Z,100480.92
2023-05-21T00:06:15.691Z,100473.61
2023-05-21T00:09:23.826Z,100474.32
2023-05-21T00:12:32.269Z,100474.03
2023-05-21T00:15:15.852Z,100473.96
2023-05-21T00:18:13.140Z,100471.26
2023-05-21T00:21:42.188Z,100468.73
2023-05-21T00:24:31.701Z,100470.41
2023-05-21T00:27:43.444Z,100465.55
2023-05-21T00:30:51.351Z,100467.27
2023-05-21T00:34:19.606Z,100462.86
2023-05-21T00:37:47.392Z,100462.91
2023-05-21T00:41:16.355Z,100460.42
2023-05-21T00:44:33.313Z,100456.29
2023-05-21T00:47:38.068Z,100449.35
2023-05-21T00:50:46.074Z,100443.91
2023-05-21T00:53:14.297Z,100446.67
2023-05-21T00:56:23.173Z,100448.09
2023-05-21T00:59:33.448Z,100442.40
2023-05-21T01:02:41.725Z,100444.77
2023-05-21T01:05:26.117Z,100444.95
2023-05-21T01:08:42.414Z,100433.61
2023-05-21T01:11:30.587Z,100433.98
2023-05-21T01:14:39.722Z,100434.05
2023-05-21T01:17:36.646Z,100429.17
2023-05-21T01:21:04.744Z,100425.24
2023-05-21T01:24:13.217Z,100424.20
2023-05-21T01:27:18.579Z,100419.93
2023-05-21T01:30:10.409Z,100420.05
2023-05-21T01:33:19.424Z,100429.77
2023-05-21T01:36:07.596Z,100431.63
2023-05-21T01:39:03.985Z,100425.70
2023-05-21T01:42:07.998Z,100419.73
2023-05-21T01:45:04.416Z,100410.56
2023-05-21T01:48:01.025Z,100408.91
2023-05-21T01:50:49.779Z,100408.51
2023-05-21T01:54:17.846Z,100403.25
2023-05-21T01:57:26.288Z,100406.69
2023-05-21T02:00:50.979Z,100404.95
2023-05-21T02:03:43.319Z,100399.07
2023-05-21T02:07:11.628Z,100395.54
2023-05-21T02:10:39.387Z,100399.02
2023-05-21T02:14:08.799Z,100406.88
2023-05-21T02:17:21.045Z,100403.58
2023-05-21T02:20:16.958Z,100399.14
2023-05-21T02:23:25.144Z,100400.47
2023-05-21T02:25:55.520Z,100403.63
2023-05-21T02:29:11.528Z,100399.95
2023-05-21T02:32:04.164Z,100402.46
2023-05-21T02:35:14.495Z,100401.50
2023-05-21T02:38:24.251Z,100404.20
2023-05-21T02:41:35.809Z,100405.23
2023-05-21T02:44:44.225Z,100410.09
2023-05-21T02:48:12.400Z,100404.58
2023-05-21T02:51:36.240Z,100401.79
2023-05-21T02:55:04.072Z,100402.23
2023-05-21T02:57:56.304Z,100400.46
2023-05-21T03:01:19.300Z,100408.24
2023-05-21T03:04:24.801Z,100410.66
2023-05-21T03:07:33.919Z,100410.13
2023-05-21T03:10:42.414Z,100411.67
2023-05-21T03:14:05.724Z,100415.94
2023-05-21T03:16:42.758Z,100416.95
2023-05-21T03:19:51.298Z,100411.94
2023-05-21T03:23:19.207Z,100411.71
2023-05-21T03:26:47.190Z,100411.55
2023-05-21T03:29:42.788Z,100413.48
2023-05-21T03:32:51.446Z,100413.92
2023-05-21T03:35:21.352Z,100420.30
2023-05-21T03:38:49.139Z,100421.84
2023-05-21T03:41:58.814Z,100419.94
2023-05-21T03:45:07.193Z,100423.14
2023-05-21T03:48:01.553Z,100423.81
2023-05-21T03:51:25.423Z,100426.98
2023-05-21T03:54:41.279Z,100429.06
2023-05-21T03:57:34.328Z,100427.05
2023-05-21T04:00:26.235Z,100424.64
2023-05-21T04:03:50.562Z,100424.36
2023-05-21T04:06:58.951Z,100427.50
2023-05-21T04:09:51.185Z,100430.84
2023-05-21T04:13:18.979Z,100428.00
2023-05-21T04:16:09.255Z,100428.03
2023-05-21T04:18:38.705Z,100427.88
2023-05-21T04:21:28.710Z,100422.55
2023-05-21T04:24:37.674Z,100428.53
2023-05-21T04:28:05.859Z,100427.50
2023-05-21T04:30:36.737Z,100426.83
2023-05-21T04:33:53.290Z,100427.41
2023-05-21T04:36:42.500Z,100423.47
2023-05-21T04:39:40.646Z,100425.42
2023-05-21T04:42:48.887Z,100429.05
2023-05-21T04:45:38.456Z,100426.32
2023-05-21T04:48:54.525Z,100427.26
2023-05-21T04:52:22.281Z,100428.80
2023-05-21T04:55:27.169Z,100433.73
2023-05-21T04:58:16.199Z,100432.03
2023-05-21T05:01:22.930Z,100425.83
2023-05-21T05:04:38.743Z,100422.01
2023-05-21T05:07:25.995Z,100428.51
2023-05-21T05:10:35.916Z,100433.33
2023-05-21T05:13:31.917Z,100433.70
2023-05-21T05:16:40.279Z,100441.59
2023-05-21T05:19:50.048Z,100442.17
2023-05-21T05:22:59.302Z,100440.45
2023-05-21T05:25:48.282Z,100443.29
2023-05-21T05:28:39.257Z,100438.66
2023-05-21T05:32:07.214Z,100437.59
2023-05-21T05:35:15.978Z,100435.38
2023-05-21T05:38:43.970Z,100430.88
2023-05-21T05:41:52.787Z,100431.61
2023-05-21T05:44:41.278Z,100433.48
2023-05-21T05:47:31.756Z,100436.24
2023-05-21T05:50:43.210Z,100437.77
2023-05-21T05:54:11.173Z,100434.35
2023-05-21T05:57:22.482Z,100430.94
2023-05-21T06:00:10.608Z,100432.05
2023-05-21T06:03:18.848Z,100428.77
2023-05-21T06:06:03.964Z,100425.55
2023-05-21T06:09:20.190Z,100426.04
2023-05-21T06:12:19.644Z,100423.20
2023-05-21T06:15:10.320Z,100423.16
2023-05-21T06:18:38.506Z,100418.27
2023-05-21T06:21:26.990Z,100413.48
2023-05-21T06:24:36.800Z,100414.25
2023-05-21T06:27:25.160Z,100415.09
2023-05-21T06:30:27.518Z,100417.38
2023-05-21T06:33:16.343Z,100414.63
2023-05-21T06:36:05.136Z,100407.80
2023-05-21T06:38:38.100Z,100410.57
2023-05-21T06:41:46.266Z,100409.24
2023-05-21T06:45:01.765Z,100406.42
2023-05-21T06:47:53.650Z,100407.52
2023-05-21T06:50:24.787Z,100405.71
2023-05-21T06:53:20.488Z,100402.81
2023-05-21T06:56:10.093Z,100399.71
2023-05-21T06:58:50.657Z,100400.84
2023-05-21T07:01:40.775Z,100399.75
2023-05-21T07:04:09.934Z,100398.94
2023-05-21T07:07:06.831Z,100391.38
2023-05-21T07:10:32.572Z,100388.34
2023-05-21T07:13:12.403Z,100387.14
2023-05-21T07:16:00.795Z,100383.13
2023-05-21T07:18:59.442Z,100388.18
2023-05-21T07:22:09.209Z,100383.98
2023-05-21T07:24:56.182Z,100384.48
2023-05-21T07:28:06.816Z,100383.47
2023-05-21T07:30:48.540Z,100380.80
2023-05-21T07:33:56.652Z,100380.42
2023-05-21T07:36:50.326Z,100378.70
2023-05-21T07:39:59.937Z,100381.19
2023-05-21T07:42:50.198Z,100373.66
2023-05-21T07:45:45.460Z,100374.13
2023-05-21T07:48:35.437Z,100376.14
2023-05-21T07:51:15.652Z,100373.92
2023-05-21T07:53:54.488Z,100371.16
2023-05-21T07:56:33.558Z,100369.61
2023-05-21T07:59:41.485Z,100368.27
2023-05-21T08:02:40.295Z,100363.13
2023-05-21T08:05:52.248Z,100370.13
2023-05-21T08:08:23.255Z,100374.54
2023-05-21T08:10:53.058Z,100374.02
2023-05-21T08:14:16.300Z,100373.05
2023-05-21T08:17:00.213Z,100369.27
2023-05-21T08:19:31.049Z,100365.71
2023-05-21T08:22:22.753Z,100365.42
2023-05-21T08:24:59.596Z,100365.40
2023-05-21T08:27:51.674Z,100363.20
2023-05-21T08:30:23.275Z,100359.30
2023-05-21T08:32:55.732Z,100357.48
2023-05-21T08:35:48.244Z,100358.04
2023-05-21T08:38:23.550Z,100354.27
2023-05-21T08:41:14.882Z,100354.14
2023-05-21T08:44:21.854Z,100350.33
2023-05-21T08:46:53.180Z,100345.52
2023-05-21T08:50:00.883Z,100344.67
2023-05-21T08:52:52.931Z,100349.27
2023-05-21T08:55:25.772Z,100349.20
2023-05-21T08:58:15.535Z,100350.98
2023-05-21T09:00:44.817Z,100353.29
2023-05-21T09:03:31.912Z,100352.80
2023-05-21T09:06:24.693Z,100350.38
2023-05-21T09:08:57.692Z,100349.28
2023-05-21T09:11:49.875Z,100349.39
2023-05-21T09:14:18.637Z,100350.88
2023-05-21T09:17:06.961Z,100351.25
2023-05-21T09:19:36.081Z,100346.45
2023-05-21T09:22:39.180Z,100348.27
2023-05-21T09:25:17.542Z,100347.70
2023-05-21T09:28:05.916Z,100350.33
2023-05-21T09:30:54.621Z,100345.84
2023-05-21T09:33:43.282Z,100345.86
2023-05-21T09:36:32.419Z,100349.70
2023-05-21T09:39:15.697Z,100348.50
2023-05-21T09:42:04.654Z,100349.46
2023-05-21T09:44:49.143Z,100347.16
2023-05-21T09:47:37.453Z,100351.84
2023-05-21T09:50:06.572Z,100354.05
2023-05-21T09:52:55.327Z,100352.54
2023-05-21T09:55:44.413Z,100349.11
2023-05-21T09:58:33.403Z,100344.10
2023-05-21T10:01:21.310Z,100338.01
2023-05-21T10:04:29.076Z,100341.24
2023-05-21T10:07:03.116Z,100342.63
2023-05-21T10:09:53.448Z,100335.83
2023-05-21T10:12:39.756Z,100334.39
2023-05-21T10:15:43.309Z,100328.50
2023-05-21T10:18:16.532Z,100323.99
2023-05-21T10:20:52.480Z,100317.93
2023-05-21T10:23:22.997Z,100311.93
2023-05-21T10:25:52.210Z,100312.18
2023-05-21T10:28:21.802Z,100309.48
2023-05-21T10:30:55.431Z,100313.01
2023-05-21T10:33:25.523Z,100311.65
2023-05-21T10:35:54.111Z,100308.04
2023-05-21T10:38:44.381Z,100303.60
2023-05-21T10:41:29.973Z,100298.76
2023-05-21T10:44:13.993Z,100299.96
2023-05-21T10:47:03.769Z,100298.12
2023-05-21T10:49:40.613Z,100294.69
2023-05-21T10:52:11.832Z,100292.84
2023-05-21T10:55:04.564Z,100290.41
2023-05-21T10:57:33.938Z,100287.73
2023-05-21T11:00:07.105Z,100287.73
2023-05-21T11:02:42.916Z,100284.30
2023-05-21T11:05:14.045Z,100283.11
2023-05-21T11:07:52.565Z,100281.21
2023-05-21T11:10:24.715Z,100281.48
2023-05-21T11:12:54.796Z,100280.80
2023-05-21T11:15:51.124Z,100282.29
2023-05-21T11:18:19.381Z,100280.39
2023-05-21T11:20:49.165Z,100280.39
2023-05-21T11:23:17.637Z,100275.95
2023-05-21T11:25:56.560Z,100276.40
2023-05-21T11:28:29.656Z,100273.35
2023-05-21T11:31:29.188Z,100269.35
2023-05-21T11:33:59.185Z,100269.54
2023-05-21T11:36:27.784Z,100265.38
2023-05-21T11:38:56.835Z,100266.25
2023-05-21T11:41:25.425Z,100261.53
2023-05-21T11:44:01.796Z,100257.80
2023-05-21T11:46:31.572Z,100258.84
2023-05-21T11:49:00.918Z,100258.30
2023-05-21T11:51:30.084Z,100256.08
2023-05-21T11:54:00.908Z,100252.27
2023-05-21T11:56:44.299Z,100249.23
2023-05-21T11:59:18.640Z,100246.69
2023-05-21T12:01:51.416Z,100241.56
2023-05-21T12:04:35.289Z,100240.55
2023-05-21T12:07:05.382Z,100239.17
2023-05-21T12:09:35.454Z,100234.73
2023-05-21T12:12:04.895Z,100236.17
2023-05-21T12:14:37.360Z,100229.11
2023-05-21T12:17:25.157Z,100222.95
2023-05-21T12:19:56.920Z,100220.55
2023-05-21T12:22:25.652Z,100213.34
2023-05-21T12:24:54.770Z,100209.58
2023-05-21T12:27:24.450Z,100205.89
2023-05-21T12:29:54.695Z,100206.71
2023-05-21T12:32:23.326Z,100203.35
2023-05-21T12:35:12.211Z,100195.52
2023-05-21T12:37:45.690Z,100198.97
2023-05-21T12:40:18.286Z,100188.77
2023-05-21T12:42:47.425Z,100192.21
2023-05-21T12:45:17.112Z,100190.53
2023-05-21T12:47:47.293Z,100193.74
2023-05-21T12:50:15.716Z,100191.33
2023-05-21T12:52:44.030Z,100193.98
2023-05-21T12:55:14.025Z,100191.73
2023-05-21T12:57:42.792Z,100193.98
2023-05-21T13:00:10.794Z,100199.85
2023-05-21T13:02:40.095Z,100206.45
2023-05-21T13:05:12.340Z,100209.00
2023-05-21T13:07:41.474Z,100205.19
2023-05-21T13:10:13.803Z,100209.45
2023-05-21T13:12:49.744Z,100209.22
2023-05-21T13:15:19.690Z,100207.95
2023-05-21T13:18:08.242Z,100201.78
2023-05-21T13:20:59.045Z,100197.20
2023-05-21T13:23:27.295Z,100197.18
2023-05-21T13:26:00.164Z,100193.34
2023-05-21T13:28:42.905Z,100188.81
2023-05-21T13:31:14.093Z,100180.80
2023-05-21T13:34:05.503Z,100176.66
2023-05-21T13:36:34.745Z,100177.27
2023-05-21T13:39:03.945Z,100176.12
2023-05-21T13:41:34.892Z,100174.92
2023-05-21T13:44:04.620Z,100180.58
2023-05-21T13:46:35.074Z,100188.74
2023-05-21T13:49:04.339Z,100193.42
2023-05-21T13:51:38.572Z,100197.24
2023-05-21T13:54:08.408Z,100199.94
2023-05-21T13:56:37.164Z,100195.09
2023-05-21T13:59:14.100Z,100197.46
2023-05-21T14:01:44.415Z,100194.47
2023-05-21T14:04:12.605Z,100189.88
2023-05-21T14:06:49.546Z,100188.95
2023-05-21T14:09:20.177Z,100192.77
2023-05-21T14:12:17.473Z,100194.38
2023-05-21T14:14:48.103Z,100199.77
2023-05-21T14:17:16.919Z,100206.09
2023-05-21T14:19:55.329Z,100213.54
2023-05-21T14:22:24.342Z,100220.75
2023-05-21T14:25:00.631Z,100223.64
2023-05-21T14:27:30.716Z,100221.01
2023-05-21T14:30:03.815Z,100225.87
2023-05-21T14:32:48.283Z,100225.48
2023-05-21T14:35:20.753Z,100231.80
2023-05-21T14:38:09.428Z,100231.86
2023-05-21T14:40:38.816Z,100231.90
2023-05-21T14:43:09.891Z,100234.34
2023-05-21T14:46:21.895Z,100226.08
2023-05-21T14:49:10.989Z,100213.02
2023-05-21T14:52:00.596Z,100200.52
2023-05-21T14:54:29.812Z,100194.89
2023-05-21T14:57:09.897Z,100195.45
2023-05-21T14:59:43.703Z,100197.25
2023-05-21T15:02:35.897Z,100194.07
2023-05-21T15:05:05.215Z,100193.77
2023-05-21T15:07:54.840Z,100187.91
2023-05-21T15:10:31.577Z,100187.56
2023-05-21T15:13:21.373Z,100187.52
2023-05-21T15:15:55.634Z,100186.95
2023-05-21T15:18:43.987Z,100185.71
2023-05-21T15:21:17.421Z,100191.73
2023-05-21T15:24:29.575Z,100193.83
2023-05-21T15:26:58.171Z,100197.89
2023-05-21T15:29:27.382Z,100197.15
2023-05-21T15:32:04.063Z,100199.77
2023-05-21T15:34:33.435Z,100202.63
2023-05-21T15:37:08.437Z,100207.86
2023-05-21T15:39:36.901Z,100215.80
2023-05-21T15:42:06.337Z,100219.23
2023-05-21T15:44:36.164Z,100225.31
2023-05-21T15:47:09.641Z,100222.34
2023-05-21T15:49:46.709Z,100222.77
2023-05-21T15:52:15.313Z,100226.86
2023-05-21T15:54:44.324Z,100234.64
2023-05-21T15:57:20.760Z,100238.11
2023-05-21T15:59:48.627Z,100236.94
2023-05-21T16:02:33.030Z,100239.81
2023-05-21T16:05:06.218Z,100244.80
2023-05-21T16:07:37.074Z,100253.88
2023-05-21T16:10:06.389Z,100274.89
2023-05-21T16:12:38.498Z,100291.86
2023-05-21T16:15:10.211Z,100294.44
2023-05-21T16:17:43.863Z,100299.19
2023-05-21T16:20:12.660Z,100304.11
2023-05-21T16:22:44.997Z,100306.00
2023-05-21T16:25:15.020Z,100306.63
2023-05-21T16:27:44.612Z,100300.88
2023-05-21T16:31:08.636Z,100299.84
2023-05-21T16:33:46.555Z,100305.73
2023-05-21T16:36:32.400Z,100304.27
2023-05-21T16:39:19.014Z,100315.26
2023-05-21T16:41:49.443Z,100324.65
2023-05-21T16:44:45.804Z,100335.70
2023-05-21T16:48:00.292Z,100347.27
2023-05-21T16:50:38.054Z,100356.02
2023-05-21T16:53:08.205Z,100360.04
2023-05-21T16:55:42.904Z,100366.52
2023-05-21T16:58:14.622Z,100380.02
2023-05-21T17:01:19.387Z,100371.70
2023-05-21T17:04:11.217Z,100367.98
2023-05-21T17:06:41.203Z,100371.67
2023-05-21T17:09:14.152Z,100375.38
2023-05-21T17:11:43.466Z,100376.09
2023-05-21T17:17:01.909Z,100374.02
2023-05-21T17:19:34.812Z,100367.11
2023-05-21T17:22:05.124Z,100361.13
2023-05-21T17:24:44.558Z,100358.38
2023-05-21T17:27:52.618Z,100347.91
2023-05-21T17:30:58.848Z,100344.16
2023-05-21T17:33:34.528Z,100340.30
2023-05-21T17:36:26.593Z,100352.80
2023-05-21T17:39:02.049Z,100358.13
2023-05-21T17:41:45.876Z,100353.03
2023-05-21T17:44:16.810Z,100354.31
2023-05-21T17:46:55.137Z,100357.33
2023-05-21T17:50:02.526Z,100363.53
2023-05-21T17:52:35.614Z,100360.35
2023-05-21T17:55:24.115Z,100363.02
2023-05-21T17:58:19.717Z,100362.98
2023-05-21T18:01:48.528Z,100368.89
2023-05-21T18:04:52.746Z,100367.52
2023-05-21T18:07:40.701Z,100364.36
2023-05-21T18:10:29.520Z,100363.17
2023-05-21T18:12:58.698Z,100358.15
2023-05-21T18:15:48.329Z,100362.13
2023-05-21T18:18:53.197Z,100375.17
2023-05-21T18:22:00.000Z,100375.93
2023-05-21T18:24:57.319Z,100375.42
2023-05-21T18:27:53.477Z,100366.56
2023-05-21T18:31:01.855Z,100364.05
2023-05-21T18:33:51.313Z,100365.66
2023-05-21T18:36:43.918Z,100371.84
2023-05-21T18:39:52.133Z,100367.60
2023-05-21T18:42:48.626Z,100370.00
2023-05-21T18:45:16.541Z,100365.02
2023-05-21T18:48:33.119Z,100354.35
2023-05-21T18:51:39.452Z,100342.20
2023-05-21T18:54:09.900Z,100335.64
2023-05-21T18:57:17.918Z,100329.19
2023-05-21T18:59:54.324Z,100331.84
2023-05-21T19:03:06.506Z,100330.42
2023-05-21T19:06:15.604Z,100337.54
2023-05-21T19:09:06.435Z,100343.73
2023-05-21T19:11:45.386Z,100348.30
2023-05-21T19:14:35.674Z,100353.61
2023-05-21T19:17:51.544Z,100353.64
2023-05-21T19:20:51.339Z,100356.96
2023-05-21T19:23:52.469Z,100353.89
2023-05-21T19:26:44.412Z,100359.02
2023-05-21T19:29:40.615Z,100364.19
2023-05-21T19:32:30.763Z,100364.75
2023-05-21T19:35:19.444Z,100363.89
2023-05-21T19:38:43.450Z,100366.30
2023-05-21T19:41:32.272Z,100369.91
2023-05-21T19:44:35.967Z,100368.15
2023-05-21T19:47:30.550Z,100366.49
2023-05-21T19:50:22.931Z,100361.81
2023-05-21T19:53:30.109Z,100358.48
2023-05-21T19:56:39.079Z,100355.02
2023-05-21T19:59:27.743Z,100359.86
2023-05-21T20:02:17.282Z,100362.06
2023-05-21T20:05:46.171Z,100362.41
2023-05-21T20:08:39.220Z,100360.86
2023-05-21T20:11:08.966Z,100359.67
2023-05-21T20:13:58.699Z,100359.42
2023-05-21T20:16:49.408Z,100356.77
2023-05-21T20:20:00.663Z,100357.05
2023-05-21T20:22:48.748Z,100358.33
2023-05-21T20:25:36.623Z,100357.91
2023-05-21T20:28:33.644Z,100355.44
2023-05-21T20:31:22.064Z,100354.11
2023-05-21T20:34:11.068Z,100348.76
2023-05-21T20:37:19.527Z,100345.45
2023-05-21T20:40:00.581Z,100343.80
2023-05-21T20:42:37.509Z,100345.56
2023-05-21T20:45:27.156Z,100347.73
2023-05-21T20:48:20.846Z,100347.80
2023-05-21T20:51:10.852Z,100347.77
2023-05-21T20:53:38.769Z,100344.08
2023-05-21T20:56:40.790Z,100344.63
2023-05-21T20:59:31.535Z,100338.32
2023-05-21T21:02:20.598Z,100335.83
2023-05-21T21:04:54.354Z,100337.77
2023-05-21T21:08:02.283Z,100339.81
2023-05-21T21:10:54.357Z,100345.09
2023-05-21T21:14:22.639Z,100346.99
2023-05-21T21:16:59.706Z,100347.61
2023-05-21T21:20:09.550Z,100349.05
2023-05-21T21:22:59.745Z,100348.28
2023-05-21T21:25:52.003Z,100343.56
2023-05-21T21:29:00.135Z,100343.23
2023-05-21T21:32:07.838Z,100339.55
2023-05-21T21:34:56.902Z,100339.85
2023-05-21T21:38:13.504Z,100338.74
2023-05-21T21:41:03.472Z,100339.14
2023-05-21T21:44:16.573Z,100344.98
2023-05-21T21:47:13.870Z,100349.14
2023-05-21T21:50:23.193Z,100348.90
2023-05-21T21:53:32.049Z,100351.14
2023-05-21T21:56:40.084Z,100349.88
2023-05-21T21:59:44.791Z,100344.05
2023-05-21T22:02:52.719Z,100343.33
2023-05-21T22:05:26.413Z,100343.69
2023-05-21T22:08:03.169Z,100342.34
2023-05-21T22:10:52.799Z,100345.36
2023-05-21T22:13:43.228Z,100341.77
2023-05-21T22:16:39.612Z,100333.64
2023-05-21T22:19:28.900Z,100333.15
2023-05-21T22:22:56.962Z,100338.88
2023-05-21T22:26:06.889Z,100341.23
2023-05-21T22:29:11.121Z,100343.17
2023-05-21T22:32:19.152Z,100343.95
2023-05-21T22:35:27.711Z,100346.38
2023-05-21T22:38:55.645Z,100344.13
2023-05-21T22:41:47.708Z,100344.32
2023-05-21T22:45:03.113Z,100341.92
2023-05-21T22:48:11.446Z,100346.54
2023-05-21T22:50:42.475Z,100347.73
2023-05-21T22:53:52.394Z,100347.55
2023-05-21T22:56:46.136Z,100345.70
2023-05-21T22:59:57.542Z,100344.17
2023-05-21T23:03:05.567Z,100346.84
2023-05-21T23:06:13.745Z,100347.79
2023-05-21T23:09:03.271Z,100349.16
2023-05-21T23:11:40.024Z,100351.05
2023-05-21T23:14:28.416Z,100353.38
2023-05-21T23:17:56.305Z,100349.53
2023-05-21T23:21:21.073Z,100348.73
2023-05-21T23:24:09.911Z,100349.29
2023-05-21T23:27:19.152Z,100349.54
2023-05-21T23:30:26.372Z,100352.77
2023-05-21T23:33:49.598Z,100346.52
2023-05-21T23:37:05.599Z,100346.35
2023-05-21T23:40:09.958Z,100347.84
2023-05-21T23:43:18.831Z,100345.39
2023-05-21T23:46:43.152Z,100344.62
2023-05-21T23:49:51.360Z,100340.52
2023-05-21T23:53:19.288Z,100341.00
2023-05-21T23:56:23.091Z,100339.56
2023-05-21T23:59:51.227Z,100342.26
